sensor_id;sensor_type;location;lat;lon;timestamp;P1;durP1;ratioP1;P2;durP2;ratioP2
16705;SDS011;8469;60.136;15.180;2022-08-21T00:00:27;7.77;;;2.10;;
16705;SDS011;8469;60.136;15.180;2022-08-21T00:02:56;7.97;;;1.80;;
16705;SDS011;8469;60.136;15.180;2022-08-21T00:05:25;9.25;;;1.98;;
16705;SDS011;8469;60.136;15.180;2022-08-21T00:07:53;9.48;;;1.90;;
16705;SDS011;8469;60.136;15.180;2022-08-21T00:10:21;6.72;;;1.98;;
16705;SDS011;8469;60.136;15.180;2022-08-21T00:12:48;9.18;;;1.90;;
16705;SDS011;8469;60.136;15.180;2022-08-21T00:15:28;11.48;;;2.10;;
16705;SDS011;8469;60.136;15.180;2022-08-21T00:17:44;7.80;;;2.00;;
16705;SDS011;8469;60.136;15.180;2022-08-21T00:20:14;9.63;;;2.30;;
16705;SDS011;8469;60.136;15.180;2022-08-21T00:22:41;8.85;;;2.05;;
16705;SDS011;8469;60.136;15.180;2022-08-21T00:25:08;13.20;;;1.80;;
16705;SDS011;8469;60.136;15.180;2022-08-21T00:27:36;10.32;;;1.82;;
16705;SDS011;8469;60.136;15.180;2022-08-21T00:30:05;11.10;;;2.05;;
16705;SDS011;8469;60.136;15.180;2022-08-21T00:32:33;12.63;;;2.15;;
16705;SDS011;8469;60.136;15.180;2022-08-21T00:35:00;7.90;;;2.02;;
16705;SDS011;8469;60.136;15.180;2022-08-21T00:37:27;8.63;;;2.10;;
16705;SDS011;8469;60.136;15.180;2022-08-21T00:39:55;11.90;;;2.08;;
16705;SDS011;8469;60.136;15.180;2022-08-21T00:42:22;10.88;;;2.35;;
16705;SDS011;8469;60.136;15.180;2022-08-21T00:44:50;10.72;;;2.17;;
16705;SDS011;8469;60.136;15.180;2022-08-21T00:47:17;11.33;;;2.15;;
16705;SDS011;8469;60.136;15.180;2022-08-21T00:49:45;9.73;;;2.10;;
16705;SDS011;8469;60.136;15.180;2022-08-21T00:52:14;12.25;;;2.30;;
16705;SDS011;8469;60.136;15.180;2022-08-21T00:54:41;9.25;;;2.02;;
16705;SDS011;8469;60.136;15.180;2022-08-21T00:57:10;9.20;;;2.10;;
16705;SDS011;8469;60.136;15.180;2022-08-21T00:59:38;7.28;;;2.02;;
16705;SDS011;8469;60.136;15.180;2022-08-21T01:02:07;7.17;;;1.85;;
16705;SDS011;8469;60.136;15.180;2022-08-21T01:04:36;9.55;;;2.15;;
16705;SDS011;8469;60.136;15.180;2022-08-21T01:07:03;10.63;;;2.40;;
16705;SDS011;8469;60.136;15.180;2022-08-21T01:09:30;9.55;;;2.20;;
16705;SDS011;8469;60.136;15.180;2022-08-21T01:11:58;8.85;;;2.20;;
16705;SDS011;8469;60.136;15.180;2022-08-21T01:14:25;12.82;;;2.00;;
16705;SDS011;8469;60.136;15.180;2022-08-21T01:16:54;10.38;;;2.42;;
16705;SDS011;8469;60.136;15.180;2022-08-21T01:19:23;11.45;;;2.45;;
16705;SDS011;8469;60.136;15.180;2022-08-21T01:21:51;10.78;;;2.05;;
16705;SDS011;8469;60.136;15.180;2022-08-21T01:24:20;10.68;;;2.02;;
16705;SDS011;8469;60.136;15.180;2022-08-21T01:26:48;14.15;;;2.52;;
16705;SDS011;8469;60.136;15.180;2022-08-21T01:29:32;11.25;;;2.20;;
16705;SDS011;8469;60.136;15.180;2022-08-21T01:31:57;17.52;;;2.85;;
16705;SDS011;8469;60.136;15.180;2022-08-21T01:34:25;11.53;;;2.55;;
16705;SDS011;8469;60.136;15.180;2022-08-21T01:36:52;13.32;;;2.70;;
16705;SDS011;8469;60.136;15.180;2022-08-21T01:39:19;10.95;;;2.70;;
16705;SDS011;8469;60.136;15.180;2022-08-21T01:41:46;6.77;;;2.10;;
16705;SDS011;8469;60.136;15.180;2022-08-21T01:44:14;11.35;;;2.35;;
16705;SDS011;8469;60.136;15.180;2022-08-21T01:46:41;10.55;;;2.15;;
16705;SDS011;8469;60.136;15.180;2022-08-21T01:49:09;9.00;;;2.30;;
16705;SDS011;8469;60.136;15.180;2022-08-21T01:51:36;8.20;;;2.50;;
16705;SDS011;8469;60.136;15.180;2022-08-21T01:54:03;9.35;;;2.10;;
16705;SDS011;8469;60.136;15.180;2022-08-21T01:56:35;9.58;;;1.98;;
16705;SDS011;8469;60.136;15.180;2022-08-21T01:58:59;11.80;;;2.70;;
16705;SDS011;8469;60.136;15.180;2022-08-21T02:01:27;10.93;;;2.10;;
16705;SDS011;8469;60.136;15.180;2022-08-21T02:03:54;10.72;;;2.00;;
16705;SDS011;8469;60.136;15.180;2022-08-21T02:06:21;9.10;;;2.00;;
16705;SDS011;8469;60.136;15.180;2022-08-21T02:08:48;12.93;;;2.50;;
16705;SDS011;8469;60.136;15.180;2022-08-21T02:11:16;12.60;;;2.37;;
16705;SDS011;8469;60.136;15.180;2022-08-21T02:13:44;10.38;;;2.10;;
16705;SDS011;8469;60.136;15.180;2022-08-21T02:16:12;16.57;;;2.30;;
16705;SDS011;8469;60.136;15.180;2022-08-21T02:18:39;7.57;;;1.90;;
16705;SDS011;8469;60.136;15.180;2022-08-21T02:21:07;11.08;;;2.25;;
16705;SDS011;8469;60.136;15.180;2022-08-21T02:23:34;11.00;;;2.17;;
16705;SDS011;8469;60.136;15.180;2022-08-21T02:26:02;10.55;;;2.15;;
16705;SDS011;8469;60.136;15.180;2022-08-21T02:28:30;10.35;;;2.00;;
16705;SDS011;8469;60.136;15.180;2022-08-21T02:30:58;7.83;;;1.93;;
16705;SDS011;8469;60.136;15.180;2022-08-21T02:33:25;9.40;;;2.08;;
16705;SDS011;8469;60.136;15.180;2022-08-21T02:35:53;8.10;;;2.45;;
16705;SDS011;8469;60.136;15.180;2022-08-21T02:38:23;12.05;;;2.20;;
16705;SDS011;8469;60.136;15.180;2022-08-21T02:40:50;12.27;;;2.53;;
16705;SDS011;8469;60.136;15.180;2022-08-21T02:43:17;8.90;;;2.10;;
16705;SDS011;8469;60.136;15.180;2022-08-21T02:45:47;8.95;;;2.08;;
16705;SDS011;8469;60.136;15.180;2022-08-21T02:48:16;10.20;;;2.37;;
16705;SDS011;8469;60.136;15.180;2022-08-21T02:50:45;14.43;;;2.17;;
16705;SDS011;8469;60.136;15.180;2022-08-21T02:53:13;5.22;;;1.87;;
16705;SDS011;8469;60.136;15.180;2022-08-21T02:55:43;9.05;;;2.12;;
16705;SDS011;8469;60.136;15.180;2022-08-21T02:58:11;11.18;;;2.10;;
16705;SDS011;8469;60.136;15.180;2022-08-21T03:00:39;11.80;;;2.25;;
16705;SDS011;8469;60.136;15.180;2022-08-21T03:03:06;14.13;;;2.40;;
16705;SDS011;8469;60.136;15.180;2022-08-21T03:05:34;10.97;;;2.00;;
16705;SDS011;8469;60.136;15.180;2022-08-21T03:08:04;8.90;;;2.17;;
16705;SDS011;8469;60.136;15.180;2022-08-21T03:10:33;14.45;;;2.25;;
16705;SDS011;8469;60.136;15.180;2022-08-21T03:13:01;10.60;;;2.10;;
16705;SDS011;8469;60.136;15.180;2022-08-21T03:15:29;13.27;;;2.37;;
16705;SDS011;8469;60.136;15.180;2022-08-21T03:17:57;9.15;;;2.00;;
16705;SDS011;8469;60.136;15.180;2022-08-21T03:20:25;10.32;;;2.00;;
16705;SDS011;8469;60.136;15.180;2022-08-21T03:22:53;9.15;;;2.00;;
16705;SDS011;8469;60.136;15.180;2022-08-21T03:25:22;10.18;;;2.10;;
16705;SDS011;8469;60.136;15.180;2022-08-21T03:27:50;9.73;;;2.37;;
16705;SDS011;8469;60.136;15.180;2022-08-21T03:30:18;6.72;;;2.17;;
16705;SDS011;8469;60.136;15.180;2022-08-21T03:32:49;5.60;;;1.90;;
16705;SDS011;8469;60.136;15.180;2022-08-21T03:35:17;8.75;;;1.70;;
16705;SDS011;8469;60.136;15.180;2022-08-21T03:37:44;8.90;;;2.10;;
16705;SDS011;8469;60.136;15.180;2022-08-21T03:40:13;8.57;;;2.30;;
16705;SDS011;8469;60.136;15.180;2022-08-21T03:42:41;10.13;;;2.33;;
16705;SDS011;8469;60.136;15.180;2022-08-21T03:45:08;9.85;;;2.25;;
16705;SDS011;8469;60.136;15.180;2022-08-21T03:47:36;7.97;;;2.20;;
16705;SDS011;8469;60.136;15.180;2022-08-21T03:50:03;8.50;;;2.35;;
16705;SDS011;8469;60.136;15.180;2022-08-21T03:52:31;14.28;;;1.90;;
16705;SDS011;8469;60.136;15.180;2022-08-21T03:54:58;10.78;;;2.33;;
16705;SDS011;8469;60.136;15.180;2022-08-21T03:57:26;7.97;;;2.17;;
16705;SDS011;8469;60.136;15.180;2022-08-21T03:59:53;13.70;;;2.30;;
16705;SDS011;8469;60.136;15.180;2022-08-21T04:02:20;11.03;;;2.33;;
16705;SDS011;8469;60.136;15.180;2022-08-21T04:04:48;11.93;;;2.10;;
16705;SDS011;8469;60.136;15.180;2022-08-21T04:07:15;7.45;;;2.52;;
16705;SDS011;8469;60.136;15.180;2022-08-21T04:09:43;16.03;;;2.50;;
16705;SDS011;8469;60.136;15.180;2022-08-21T04:12:11;8.58;;;2.00;;
16705;SDS011;8469;60.136;15.180;2022-08-21T04:14:38;11.90;;;2.02;;
16705;SDS011;8469;60.136;15.180;2022-08-21T04:17:05;11.50;;;2.30;;
16705;SDS011;8469;60.136;15.180;2022-08-21T04:19:33;10.65;;;2.22;;
16705;SDS011;8469;60.136;15.180;2022-08-21T04:22:00;13.32;;;2.05;;
16705;SDS011;8469;60.136;15.180;2022-08-21T04:24:27;8.93;;;2.33;;
16705;SDS011;8469;60.136;15.180;2022-08-21T04:26:54;7.83;;;1.90;;
16705;SDS011;8469;60.136;15.180;2022-08-21T04:29:22;7.45;;;2.00;;
16705;SDS011;8469;60.136;15.180;2022-08-21T04:31:51;13.03;;;2.37;;
16705;SDS011;8469;60.136;15.180;2022-08-21T04:34:18;10.67;;;2.00;;
16705;SDS011;8469;60.136;15.180;2022-08-21T04:36:45;7.03;;;2.10;;
16705;SDS011;8469;60.136;15.180;2022-08-21T04:39:13;13.78;;;2.90;;
16705;SDS011;8469;60.136;15.180;2022-08-21T04:41:40;9.93;;;2.12;;
16705;SDS011;8469;60.136;15.180;2022-08-21T04:44:07;8.18;;;2.10;;
16705;SDS011;8469;60.136;15.180;2022-08-21T04:46:34;11.05;;;2.70;;
16705;SDS011;8469;60.136;15.180;2022-08-21T04:49:02;8.00;;;2.10;;
16705;SDS011;8469;60.136;15.180;2022-08-21T04:51:32;10.63;;;2.27;;
16705;SDS011;8469;60.136;15.180;2022-08-21T04:54:06;9.20;;;1.95;;
16705;SDS011;8469;60.136;15.180;2022-08-21T04:56:30;16.50;;;2.30;;
16705;SDS011;8469;60.136;15.180;2022-08-21T04:59:01;13.37;;;2.03;;
16705;SDS011;8469;60.136;15.180;2022-08-21T05:01:33;7.50;;;1.95;;
16705;SDS011;8469;60.136;15.180;2022-08-21T05:04:02;8.40;;;2.10;;
16705;SDS011;8469;60.136;15.180;2022-08-21T05:06:31;11.22;;;2.50;;
16705;SDS011;8469;60.136;15.180;2022-08-21T05:08:59;8.55;;;2.10;;
16705;SDS011;8469;60.136;15.180;2022-08-21T05:11:29;12.60;;;2.70;;
16705;SDS011;8469;60.136;15.180;2022-08-21T05:13:56;8.85;;;2.60;;
16705;SDS011;8469;60.136;15.180;2022-08-21T05:16:23;6.33;;;1.92;;
16705;SDS011;8469;60.136;15.180;2022-08-21T05:18:51;6.75;;;1.95;;
16705;SDS011;8469;60.136;15.180;2022-08-21T05:21:18;8.53;;;2.12;;
16705;SDS011;8469;60.136;15.180;2022-08-21T05:23:45;8.55;;;1.90;;
16705;SDS011;8469;60.136;15.180;2022-08-21T05:26:12;7.67;;;2.03;;
16705;SDS011;8469;60.136;15.180;2022-08-21T05:28:40;8.40;;;1.90;;
16705;SDS011;8469;60.136;15.180;2022-08-21T05:31:07;7.90;;;2.25;;
16705;SDS011;8469;60.136;15.180;2022-08-21T05:33:34;8.40;;;1.80;;
16705;SDS011;8469;60.136;15.180;2022-08-21T05:36:01;9.13;;;1.90;;
16705;SDS011;8469;60.136;15.180;2022-08-21T05:38:29;8.65;;;2.02;;
16705;SDS011;8469;60.136;15.180;2022-08-21T05:40:56;6.15;;;2.00;;
16705;SDS011;8469;60.136;15.180;2022-08-21T05:43:23;5.60;;;2.05;;
16705;SDS011;8469;60.136;15.180;2022-08-21T05:45:51;4.03;;;1.90;;
16705;SDS011;8469;60.136;15.180;2022-08-21T05:48:19;6.70;;;2.17;;
16705;SDS011;8469;60.136;15.180;2022-08-21T05:50:47;4.85;;;1.80;;
16705;SDS011;8469;60.136;15.180;2022-08-21T05:53:15;6.03;;;1.77;;
16705;SDS011;8469;60.136;15.180;2022-08-21T05:55:43;7.72;;;2.02;;
16705;SDS011;8469;60.136;15.180;2022-08-21T05:58:12;6.80;;;1.80;;
16705;SDS011;8469;60.136;15.180;2022-08-21T06:00:39;7.35;;;1.70;;
16705;SDS011;8469;60.136;15.180;2022-08-21T06:03:18;6.00;;;1.60;;
16705;SDS011;8469;60.136;15.180;2022-08-21T06:05:43;7.00;;;1.57;;
16705;SDS011;8469;60.136;15.180;2022-08-21T06:08:10;5.20;;;1.70;;
16705;SDS011;8469;60.136;15.180;2022-08-21T06:10:37;5.30;;;1.70;;
16705;SDS011;8469;60.136;15.180;2022-08-21T06:13:04;9.13;;;1.65;;
16705;SDS011;8469;60.136;15.180;2022-08-21T06:15:32;5.95;;;1.70;;
16705;SDS011;8469;60.136;15.180;2022-08-21T06:17:59;4.65;;;1.65;;
16705;SDS011;8469;60.136;15.180;2022-08-21T06:20:26;5.45;;;1.50;;
16705;SDS011;8469;60.136;15.180;2022-08-21T06:22:55;5.70;;;2.00;;
16705;SDS011;8469;60.136;15.180;2022-08-21T06:25:22;6.87;;;2.10;;
16705;SDS011;8469;60.136;15.180;2022-08-21T06:27:50;4.35;;;1.55;;
16705;SDS011;8469;60.136;15.180;2022-08-21T06:30:18;4.47;;;1.67;;
16705;SDS011;8469;60.136;15.180;2022-08-21T06:32:46;4.22;;;1.52;;
16705;SDS011;8469;60.136;15.180;2022-08-21T06:35:13;4.90;;;1.47;;
16705;SDS011;8469;60.136;15.180;2022-08-21T06:37:40;8.53;;;1.70;;
16705;SDS011;8469;60.136;15.180;2022-08-21T06:40:07;5.20;;;1.55;;
16705;SDS011;8469;60.136;15.180;2022-08-21T06:42:36;5.08;;;1.47;;
16705;SDS011;8469;60.136;15.180;2022-08-21T06:45:03;4.60;;;1.40;;
16705;SDS011;8469;60.136;15.180;2022-08-21T06:47:31;6.85;;;1.65;;
16705;SDS011;8469;60.136;15.180;2022-08-21T06:49:58;4.03;;;1.10;;
16705;SDS011;8469;60.136;15.180;2022-08-21T06:52:25;5.15;;;1.37;;
16705;SDS011;8469;60.136;15.180;2022-08-21T06:54:53;4.35;;;1.32;;
16705;SDS011;8469;60.136;15.180;2022-08-21T06:57:20;3.00;;;1.40;;
16705;SDS011;8469;60.136;15.180;2022-08-21T06:59:48;4.47;;;1.42;;
16705;SDS011;8469;60.136;15.180;2022-08-21T07:02:15;2.67;;;1.37;;
16705;SDS011;8469;60.136;15.180;2022-08-21T07:04:42;2.83;;;1.40;;
16705;SDS011;8469;60.136;15.180;2022-08-21T07:07:09;3.30;;;1.40;;
16705;SDS011;8469;60.136;15.180;2022-08-21T07:09:36;4.60;;;1.40;;
16705;SDS011;8469;60.136;15.180;2022-08-21T07:12:05;3.90;;;1.40;;
16705;SDS011;8469;60.136;15.180;2022-08-21T07:14:32;4.58;;;1.50;;
16705;SDS011;8469;60.136;15.180;2022-08-21T07:17:00;2.15;;;1.32;;
16705;SDS011;8469;60.136;15.180;2022-08-21T07:19:27;2.70;;;1.27;;
16705;SDS011;8469;60.136;15.180;2022-08-21T07:21:55;5.00;;;1.57;;
16705;SDS011;8469;60.136;15.180;2022-08-21T07:24:23;4.55;;;1.40;;
16705;SDS011;8469;60.136;15.180;2022-08-21T07:26:50;7.58;;;1.60;;
16705;SDS011;8469;60.136;15.180;2022-08-21T07:29:18;4.05;;;1.40;;
16705;SDS011;8469;60.136;15.180;2022-08-21T07:31:45;4.17;;;1.32;;
16705;SDS011;8469;60.136;15.180;2022-08-21T07:34:12;4.53;;;1.40;;
16705;SDS011;8469;60.136;15.180;2022-08-21T07:36:40;4.85;;;1.57;;
16705;SDS011;8469;60.136;15.180;2022-08-21T07:39:08;3.52;;;1.40;;
16705;SDS011;8469;60.136;15.180;2022-08-21T07:41:36;5.43;;;1.50;;
16705;SDS011;8469;60.136;15.180;2022-08-21T07:44:03;4.20;;;1.47;;
16705;SDS011;8469;60.136;15.180;2022-08-21T07:46:31;5.78;;;1.32;;
16705;SDS011;8469;60.136;15.180;2022-08-21T07:48:58;3.30;;;1.40;;
16705;SDS011;8469;60.136;15.180;2022-08-21T07:51:26;2.33;;;1.30;;
16705;SDS011;8469;60.136;15.180;2022-08-21T07:53:55;3.17;;;1.25;;
16705;SDS011;8469;60.136;15.180;2022-08-21T07:56:23;2.87;;;1.40;;
16705;SDS011;8469;60.136;15.180;2022-08-21T07:58:50;4.87;;;1.30;;
16705;SDS011;8469;60.136;15.180;2022-08-21T08:01:18;4.92;;;1.52;;
16705;SDS011;8469;60.136;15.180;2022-08-21T08:03:45;5.55;;;1.30;;
16705;SDS011;8469;60.136;15.180;2022-08-21T08:06:13;5.25;;;1.30;;
16705;SDS011;8469;60.136;15.180;2022-08-21T08:08:42;3.05;;;1.17;;
16705;SDS011;8469;60.136;15.180;2022-08-21T08:11:10;3.47;;;1.40;;
16705;SDS011;8469;60.136;15.180;2022-08-21T08:13:38;3.92;;;1.27;;
16705;SDS011;8469;60.136;15.180;2022-08-21T08:16:05;3.00;;;1.30;;
16705;SDS011;8469;60.136;15.180;2022-08-21T08:18:34;3.08;;;1.17;;
16705;SDS011;8469;60.136;15.180;2022-08-21T08:21:01;4.80;;;1.37;;
16705;SDS011;8469;60.136;15.180;2022-08-21T08:23:28;4.00;;;1.32;;
16705;SDS011;8469;60.136;15.180;2022-08-21T08:25:56;3.98;;;1.55;;
16705;SDS011;8469;60.136;15.180;2022-08-21T08:28:25;4.83;;;1.30;;
16705;SDS011;8469;60.136;15.180;2022-08-21T08:30:53;5.77;;;1.40;;
16705;SDS011;8469;60.136;15.180;2022-08-21T08:33:20;4.87;;;1.50;;
16705;SDS011;8469;60.136;15.180;2022-08-21T08:35:48;2.33;;;1.12;;
16705;SDS011;8469;60.136;15.180;2022-08-21T08:38:17;1.80;;;1.05;;
16705;SDS011;8469;60.136;15.180;2022-08-21T08:43:36;2.02;;;1.20;;
16705;SDS011;8469;60.136;15.180;2022-08-21T08:46:06;1.77;;;1.10;;
16705;SDS011;8469;60.136;15.180;2022-08-21T08:48:39;1.97;;;0.97;;
16705;SDS011;8469;60.136;15.180;2022-08-21T08:51:06;4.40;;;1.45;;
16705;SDS011;8469;60.136;15.180;2022-08-21T08:53:37;1.90;;;1.07;;
16705;SDS011;8469;60.136;15.180;2022-08-21T08:56:02;4.22;;;1.32;;
16705;SDS011;8469;60.136;15.180;2022-08-21T08:58:37;5.83;;;1.30;;
16705;SDS011;8469;60.136;15.180;2022-08-21T09:01:00;1.98;;;1.25;;
16705;SDS011;8469;60.136;15.180;2022-08-21T09:03:28;5.03;;;1.10;;
16705;SDS011;8469;60.136;15.180;2022-08-21T09:06:08;3.10;;;1.20;;
16705;SDS011;8469;60.136;15.180;2022-08-21T09:08:52;3.80;;;1.47;;
16705;SDS011;8469;60.136;15.180;2022-08-21T09:16:47;3.08;;;1.20;;
16705;SDS011;8469;60.136;15.180;2022-08-21T09:19:15;3.50;;;1.17;;
16705;SDS011;8469;60.136;15.180;2022-08-21T09:21:57;4.00;;;1.20;;
16705;SDS011;8469;60.136;15.180;2022-08-21T09:24:33;2.37;;;1.17;;
16705;SDS011;8469;60.136;15.180;2022-08-21T09:29:33;3.00;;;1.40;;
16705;SDS011;8469;60.136;15.180;2022-08-21T09:32:02;3.45;;;1.30;;
16705;SDS011;8469;60.136;15.180;2022-08-21T09:34:31;4.35;;;1.45;;
16705;SDS011;8469;60.136;15.180;2022-08-21T09:36:58;3.08;;;1.10;;
16705;SDS011;8469;60.136;15.180;2022-08-21T09:39:30;4.60;;;1.30;;
16705;SDS011;8469;60.136;15.180;2022-08-21T09:41:59;2.65;;;1.22;;
16705;SDS011;8469;60.136;15.180;2022-08-21T09:44:27;3.47;;;1.42;;
16705;SDS011;8469;60.136;15.180;2022-08-21T09:46:55;2.23;;;1.13;;
16705;SDS011;8469;60.136;15.180;2022-08-21T09:49:31;1.62;;;1.00;;
16705;SDS011;8469;60.136;15.180;2022-08-21T09:51:55;4.55;;;1.37;;
16705;SDS011;8469;60.136;15.180;2022-08-21T09:54:24;3.08;;;1.20;;
16705;SDS011;8469;60.136;15.180;2022-08-21T09:56:53;5.65;;;1.57;;
16705;SDS011;8469;60.136;15.180;2022-08-21T09:59:38;5.10;;;1.40;;
16705;SDS011;8469;60.136;15.180;2022-08-21T10:04:52;3.17;;;1.20;;
16705;SDS011;8469;60.136;15.180;2022-08-21T10:07:20;2.50;;;1.30;;
16705;SDS011;8469;60.136;15.180;2022-08-21T10:18:12;1.97;;;1.10;;
16705;SDS011;8469;60.136;15.180;2022-08-21T10:25:52;2.20;;;1.25;;
16705;SDS011;8469;60.136;15.180;2022-08-21T10:30:50;4.37;;;1.15;;
16705;SDS011;8469;60.136;15.180;2022-08-21T10:33:30;1.90;;;1.17;;
16705;SDS011;8469;60.136;15.180;2022-08-21T10:36:04;4.05;;;1.20;;
16705;SDS011;8469;60.136;15.180;2022-08-21T10:43:59;2.45;;;1.20;;
16705;SDS011;8469;60.136;15.180;2022-08-21T10:49:21;2.65;;;1.40;;
16705;SDS011;8469;60.136;15.180;2022-08-21T10:57:05;3.72;;;1.20;;
16705;SDS011;8469;60.136;15.180;2022-08-21T11:04:34;2.53;;;1.30;;
16705;SDS011;8469;60.136;15.180;2022-08-21T11:07:08;2.60;;;1.20;;
16705;SDS011;8469;60.136;15.180;2022-08-21T11:09:31;3.02;;;1.35;;
16705;SDS011;8469;60.136;15.180;2022-08-21T11:12:00;3.40;;;1.47;;
16705;SDS011;8469;60.136;15.180;2022-08-21T11:17:52;2.60;;;1.00;;
16705;SDS011;8469;60.136;15.180;2022-08-21T11:20:21;2.35;;;1.20;;
16705;SDS011;8469;60.136;15.180;2022-08-21T11:22:52;1.92;;;1.10;;
16705;SDS011;8469;60.136;15.180;2022-08-21T11:25:35;7.47;;;1.30;;
16705;SDS011;8469;60.136;15.180;2022-08-21T11:28:00;3.05;;;1.30;;
16705;SDS011;8469;60.136;15.180;2022-08-21T11:30:31;2.45;;;1.20;;
16705;SDS011;8469;60.136;15.180;2022-08-21T11:38:21;2.20;;;1.20;;
16705;SDS011;8469;60.136;15.180;2022-08-21T11:43:34;3.05;;;1.27;;
16705;SDS011;8469;60.136;15.180;2022-08-21T11:51:16;2.93;;;1.00;;
16705;SDS011;8469;60.136;15.180;2022-08-21T11:56:20;1.90;;;1.10;;
16705;SDS011;8469;60.136;15.180;2022-08-21T11:58:51;2.52;;;1.30;;
16705;SDS011;8469;60.136;15.180;2022-08-21T12:01:27;4.03;;;1.30;;
16705;SDS011;8469;60.136;15.180;2022-08-21T12:03:58;1.42;;;1.10;;
16705;SDS011;8469;60.136;15.180;2022-08-21T12:06:34;3.80;;;1.20;;
16705;SDS011;8469;60.136;15.180;2022-08-21T12:08:58;1.90;;;1.00;;
16705;SDS011;8469;60.136;15.180;2022-08-21T12:11:26;3.57;;;1.30;;
16705;SDS011;8469;60.136;15.180;2022-08-21T12:16:41;1.95;;;1.17;;
16705;SDS011;8469;60.136;15.180;2022-08-21T12:21:49;1.62;;;1.02;;
16705;SDS011;8469;60.136;15.180;2022-08-21T12:24:19;2.63;;;1.30;;
16705;SDS011;8469;60.136;15.180;2022-08-21T12:27:39;2.83;;;1.30;;
16705;SDS011;8469;60.136;15.180;2022-08-21T12:29:45;3.10;;;1.10;;
16705;SDS011;8469;60.136;15.180;2022-08-21T12:35:05;4.30;;;1.77;;
16705;SDS011;8469;60.136;15.180;2022-08-21T12:40:32;3.10;;;1.45;;
16705;SDS011;8469;60.136;15.180;2022-08-21T12:43:00;3.83;;;1.27;;
16705;SDS011;8469;60.136;15.180;2022-08-21T12:48:39;4.75;;;1.67;;
16705;SDS011;8469;60.136;15.180;2022-08-21T12:50:55;3.42;;;1.47;;
16705;SDS011;8469;60.136;15.180;2022-08-21T12:53:32;12.73;;;4.95;;
16705;SDS011;8469;60.136;15.180;2022-08-21T12:55:57;3.02;;;1.22;;
16705;SDS011;8469;60.136;15.180;2022-08-21T12:58:28;3.67;;;1.75;;
16705;SDS011;8469;60.136;15.180;2022-08-21T13:01:05;1.72;;;1.40;;
16705;SDS011;8469;60.136;15.180;2022-08-21T13:03:44;25.62;;;8.10;;
16705;SDS011;8469;60.136;15.180;2022-08-21T13:09:03;2.50;;;1.40;;
16705;SDS011;8469;60.136;15.180;2022-08-21T13:11:34;4.40;;;1.33;;
16705;SDS011;8469;60.136;15.180;2022-08-21T13:14:46;2.55;;;1.37;;
16705;SDS011;8469;60.136;15.180;2022-08-21T13:16:42;2.27;;;1.57;;
16705;SDS011;8469;60.136;15.180;2022-08-21T13:19:20;3.90;;;1.62;;
16705;SDS011;8469;60.136;15.180;2022-08-21T13:21:52;2.73;;;1.57;;
16705;SDS011;8469;60.136;15.180;2022-08-21T13:24:28;2.10;;;1.12;;
16705;SDS011;8469;60.136;15.180;2022-08-21T13:26:57;2.90;;;1.20;;
16705;SDS011;8469;60.136;15.180;2022-08-21T13:29:30;1.22;;;1.10;;
16705;SDS011;8469;60.136;15.180;2022-08-21T13:31:57;5.60;;;1.80;;
16705;SDS011;8469;60.136;15.180;2022-08-21T13:34:28;1.37;;;1.22;;
16705;SDS011;8469;60.136;15.180;2022-08-21T13:37:00;3.05;;;1.12;;
16705;SDS011;8469;60.136;15.180;2022-08-21T13:39:24;3.52;;;1.40;;
16705;SDS011;8469;60.136;15.180;2022-08-21T13:41:53;3.22;;;1.27;;
16705;SDS011;8469;60.136;15.180;2022-08-21T13:46:53;2.58;;;1.20;;
16705;SDS011;8469;60.136;15.180;2022-08-21T13:49:23;2.87;;;1.30;;
16705;SDS011;8469;60.136;15.180;2022-08-21T13:51:49;4.15;;;1.47;;
16705;SDS011;8469;60.136;15.180;2022-08-21T13:54:25;2.72;;;1.30;;
16705;SDS011;8469;60.136;15.180;2022-08-21T13:56:53;5.60;;;2.67;;
16705;SDS011;8469;60.136;15.180;2022-08-21T14:01:59;3.95;;;1.40;;
16705;SDS011;8469;60.136;15.180;2022-08-21T14:04:38;3.20;;;1.50;;
16705;SDS011;8469;60.136;15.180;2022-08-21T14:07:17;2.12;;;1.27;;
16705;SDS011;8469;60.136;15.180;2022-08-21T14:09:53;3.67;;;1.35;;
16705;SDS011;8469;60.136;15.180;2022-08-21T14:15:07;3.87;;;1.32;;
16705;SDS011;8469;60.136;15.180;2022-08-21T14:17:36;3.15;;;1.30;;
16705;SDS011;8469;60.136;15.180;2022-08-21T14:20:05;3.22;;;1.45;;
16705;SDS011;8469;60.136;15.180;2022-08-21T14:22:44;4.28;;;1.37;;
16705;SDS011;8469;60.136;15.180;2022-08-21T14:25:15;2.50;;;1.42;;
16705;SDS011;8469;60.136;15.180;2022-08-21T14:27:43;4.17;;;1.60;;
16705;SDS011;8469;60.136;15.180;2022-08-21T14:30:13;2.70;;;1.30;;
16705;SDS011;8469;60.136;15.180;2022-08-21T14:32:40;3.27;;;1.42;;
16705;SDS011;8469;60.136;15.180;2022-08-21T14:35:08;2.00;;;1.20;;
16705;SDS011;8469;60.136;15.180;2022-08-21T14:37:36;3.15;;;1.40;;
16705;SDS011;8469;60.136;15.180;2022-08-21T14:40:04;5.08;;;1.57;;
16705;SDS011;8469;60.136;15.180;2022-08-21T14:42:31;4.42;;;1.60;;
16705;SDS011;8469;60.136;15.180;2022-08-21T14:45:00;4.58;;;1.60;;
16705;SDS011;8469;60.136;15.180;2022-08-21T14:47:28;3.52;;;1.70;;
16705;SDS011;8469;60.136;15.180;2022-08-21T14:49:55;4.50;;;1.52;;
16705;SDS011;8469;60.136;15.180;2022-08-21T14:52:22;5.28;;;1.50;;
16705;SDS011;8469;60.136;15.180;2022-08-21T14:54:49;1.77;;;1.40;;
16705;SDS011;8469;60.136;15.180;2022-08-21T14:57:17;4.65;;;1.80;;
16705;SDS011;8469;60.136;15.180;2022-08-21T14:59:44;5.67;;;1.50;;
16705;SDS011;8469;60.136;15.180;2022-08-21T15:02:12;2.65;;;1.60;;
16705;SDS011;8469;60.136;15.180;2022-08-21T15:04:38;4.62;;;1.50;;
16705;SDS011;8469;60.136;15.180;2022-08-21T15:07:08;3.50;;;1.57;;
16705;SDS011;8469;60.136;15.180;2022-08-21T15:09:35;3.30;;;1.62;;
16705;SDS011;8469;60.136;15.180;2022-08-21T15:12:02;2.02;;;1.40;;
16705;SDS011;8469;60.136;15.180;2022-08-21T15:14:30;3.47;;;1.57;;
16705;SDS011;8469;60.136;15.180;2022-08-21T15:17:00;3.63;;;1.80;;
16705;SDS011;8469;60.136;15.180;2022-08-21T15:19:29;3.65;;;1.80;;
16705;SDS011;8469;60.136;15.180;2022-08-21T15:21:56;3.98;;;1.95;;
16705;SDS011;8469;60.136;15.180;2022-08-21T15:24:24;3.50;;;1.70;;
16705;SDS011;8469;60.136;15.180;2022-08-21T15:26:52;4.15;;;1.90;;
16705;SDS011;8469;60.136;15.180;2022-08-21T15:29:20;2.72;;;1.52;;
16705;SDS011;8469;60.136;15.180;2022-08-21T15:31:51;3.92;;;1.70;;
16705;SDS011;8469;60.136;15.180;2022-08-21T15:34:20;2.95;;;1.67;;
16705;SDS011;8469;60.136;15.180;2022-08-21T15:36:47;3.45;;;1.60;;
16705;SDS011;8469;60.136;15.180;2022-08-21T15:39:14;5.00;;;2.05;;
16705;SDS011;8469;60.136;15.180;2022-08-21T15:41:42;3.92;;;1.52;;
16705;SDS011;8469;60.136;15.180;2022-08-21T15:44:09;2.92;;;1.60;;
16705;SDS011;8469;60.136;15.180;2022-08-21T15:46:39;2.85;;;1.80;;
16705;SDS011;8469;60.136;15.180;2022-08-21T15:49:06;3.87;;;1.50;;
16705;SDS011;8469;60.136;15.180;2022-08-21T15:54:33;2.98;;;1.60;;
16705;SDS011;8469;60.136;15.180;2022-08-21T15:57:20;5.97;;;1.65;;
16705;SDS011;8469;60.136;15.180;2022-08-21T15:59:54;4.50;;;1.62;;
16705;SDS011;8469;60.136;15.180;2022-08-21T16:02:53;4.40;;;1.70;;
16705;SDS011;8469;60.136;15.180;2022-08-21T16:05:16;3.27;;;1.57;;
16705;SDS011;8469;60.136;15.180;2022-08-21T16:07:47;3.35;;;1.50;;
16705;SDS011;8469;60.136;15.180;2022-08-21T16:10:20;4.22;;;1.80;;
16705;SDS011;8469;60.136;15.180;2022-08-21T16:12:50;4.65;;;1.90;;
16705;SDS011;8469;60.136;15.180;2022-08-21T16:15:30;3.75;;;1.60;;
16705;SDS011;8469;60.136;15.180;2022-08-21T16:17:53;3.67;;;1.52;;
16705;SDS011;8469;60.136;15.180;2022-08-21T16:20:23;3.60;;;1.52;;
16705;SDS011;8469;60.136;15.180;2022-08-21T16:22:59;5.20;;;1.82;;
16705;SDS011;8469;60.136;15.180;2022-08-21T16:25:27;3.58;;;1.50;;
16705;SDS011;8469;60.136;15.180;2022-08-21T16:28:02;3.55;;;1.50;;
16705;SDS011;8469;60.136;15.180;2022-08-21T16:30:35;3.47;;;1.53;;